createdAt,value
2018-11-23T00:00:27.459Z,277.80
2018-11-23T00:02:56.905Z,244.93
2018-11-23T00:05:25.621Z,505.10
2018-11-23T00:07:55.081Z,140.50
2018-11-23T00:10:24.798Z,196.47
2018-11-23T00:12:53.487Z,317.70
2018-11-23T00:15:27.850Z,289.27
2018-11-23T00:17:56.624Z,278.33
2018-11-23T00:20:28.363Z,135.50
2018-11-23T00:22:56.927Z,135.47
2018-11-23T00:25:26.367Z,114.90
2018-11-23T00:27:55.484Z,124.23
2018-11-23T00:30:25.418Z,109.00
2018-11-23T00:32:54.619Z,59.53
2018-11-23T00:35:24.692Z,44.13
2018-11-23T00:37:53.985Z,60.20
2018-11-23T00:40:24.847Z,44.70
2018-11-23T00:42:53.856Z,70.23
2018-11-23T00:45:22.568Z,62.57
2018-11-23T00:47:51.899Z,73.40
2018-11-23T00:50:21.800Z,49.43
2018-11-23T00:52:51.196Z,49.27
2018-11-23T00:55:20.894Z,51.27
2018-11-23T00:57:49.934Z,52.70
2018-11-23T01:00:20.743Z,57.17
2018-11-23T01:02:49.378Z,45.77
2018-11-23T01:05:19.542Z,53.43
2018-11-23T01:07:48.768Z,54.37
2018-11-23T01:10:19.659Z,57.87
2018-11-23T01:12:49.281Z,50.30
2018-11-23T01:15:17.846Z,44.70
2018-11-23T01:17:46.640Z,41.37
2018-11-23T01:20:18.128Z,65.37
2018-11-23T01:22:47.064Z,167.60
2018-11-23T01:25:19.001Z,150.07
2018-11-23T01:27:48.944Z,39.97
2018-11-23T01:30:22.792Z,78.97
2018-11-23T01:32:51.405Z,56.47
2018-11-23T01:35:20.043Z,53.63
2018-11-23T01:37:49.008Z,56.03
2018-11-23T01:40:19.177Z,53.90
2018-11-23T01:42:48.145Z,71.87
2018-11-23T01:45:17.269Z,72.13
2018-11-23T01:47:45.912Z,71.63
2018-11-23T01:50:17.096Z,59.60
2018-11-23T01:52:46.849Z,57.43
2018-11-23T01:55:16.410Z,64.10
2018-11-23T01:57:45.385Z,55.80
2018-11-23T02:00:15.729Z,114.30
2018-11-23T02:02:44.773Z,69.20
2018-11-23T02:05:13.410Z,193.77
2018-11-23T02:07:41.980Z,202.67
2018-11-23T02:10:12.230Z,86.80
2018-11-23T02:12:40.795Z,152.53
2018-11-23T02:15:11.223Z,129.47
2018-11-23T02:17:39.820Z,230.50
2018-11-23T02:20:10.787Z,111.40
2018-11-23T02:22:39.488Z,228.83
2018-11-23T02:25:08.229Z,270.97
2018-11-23T02:27:37.027Z,240.50
2018-11-23T02:30:16.497Z,547.07
2018-11-23T02:32:45.643Z,315.10
2018-11-23T02:35:14.946Z,247.07
2018-11-23T02:37:43.733Z,316.33
2018-11-23T02:40:14.679Z,372.33
2018-11-23T02:42:43.362Z,187.53
2018-11-23T02:45:14.462Z,167.60
2018-11-23T02:47:43.968Z,234.57
2018-11-23T02:50:12.552Z,333.63
2018-11-23T02:52:41.763Z,58.77
2018-11-23T02:55:11.698Z,155.70
2018-11-23T02:57:40.359Z,127.60
2018-11-23T03:00:12.406Z,80.13
2018-11-23T03:02:41.088Z,276.57
2018-11-23T03:05:11.448Z,130.00
2018-11-23T03:07:40.622Z,302.00
2018-11-23T03:10:10.509Z,293.70
2018-11-23T03:12:39.567Z,471.37
2018-11-23T03:15:09.759Z,330.30
2018-11-23T03:17:38.421Z,213.20
2018-11-23T03:20:09.593Z,185.17
2018-11-23T03:22:38.614Z,207.63
2018-11-23T03:25:08.006Z,69.07
2018-11-23T03:27:36.917Z,151.43
2018-11-23T03:30:10.090Z,213.73
2018-11-23T03:32:39.093Z,265.37
2018-11-23T03:35:07.827Z,105.93
2018-11-23T03:37:36.831Z,250.30
2018-11-23T03:40:06.024Z,130.40
2018-11-23T03:42:34.865Z,88.10
2018-11-23T03:45:04.239Z,178.00
2018-11-23T03:47:33.590Z,200.37
2018-11-23T03:50:02.176Z,164.20
2018-11-23T03:55:08.189Z,125.47
2018-11-23T03:57:36.974Z,228.87
2018-11-23T04:00:16.894Z,208.73
2018-11-23T04:02:39.073Z,160.27
2018-11-23T04:05:07.782Z,126.07
2018-11-23T04:07:36.385Z,196.10
2018-11-23T04:10:06.173Z,123.23
2018-11-23T04:12:34.827Z,102.03
2018-11-23T04:15:03.549Z,156.33
2018-11-23T04:17:32.124Z,192.67
2018-11-23T04:20:00.795Z,118.43
2018-11-23T04:22:29.619Z,249.13
2018-11-23T04:24:58.255Z,221.40
2018-11-23T04:27:26.898Z,229.07
2018-11-23T04:29:55.455Z,182.67
2018-11-23T04:32:24.133Z,92.07
2018-11-23T04:34:52.806Z,107.37
2018-11-23T04:37:21.510Z,111.33
2018-11-23T04:39:50.262Z,180.97
2018-11-23T04:42:18.808Z,148.13
2018-11-23T04:44:47.436Z,151.37
2018-11-23T04:47:16.036Z,104.87
2018-11-23T04:49:44.670Z,204.00
2018-11-23T04:52:13.471Z,247.57
2018-11-23T04:54:42.073Z,134.97
2018-11-23T04:57:10.678Z,303.10
2018-11-23T04:59:39.296Z,190.83
2018-11-23T05:02:07.891Z,220.07
2018-11-23T05:04:36.491Z,176.83
2018-11-23T05:07:05.434Z,90.23
2018-11-23T05:09:33.983Z,55.83
2018-11-23T05:12:02.546Z,104.33
2018-11-23T05:14:31.087Z,272.03
2018-11-23T05:16:59.811Z,117.60
2018-11-23T05:19:28.355Z,45.87
2018-11-23T05:21:57.140Z,69.90
2018-11-23T05:24:25.809Z,218.53
2018-11-23T05:26:54.366Z,110.73
2018-11-23T05:29:23.036Z,125.00
2018-11-23T05:31:51.558Z,278.57
2018-11-23T05:34:20.014Z,116.77
2018-11-23T05:36:48.507Z,184.27
2018-11-23T05:39:16.978Z,99.00
2018-11-23T05:41:45.417Z,122.97
2018-11-23T05:44:13.885Z,139.37
2018-11-23T05:46:42.367Z,116.50
2018-11-23T05:49:10.827Z,131.03
2018-11-23T05:51:39.298Z,235.47
2018-11-23T05:54:07.765Z,186.10
2018-11-23T05:56:36.335Z,147.27
2018-11-23T05:59:05.082Z,167.93
2018-11-23T06:01:33.522Z,162.03
2018-11-23T06:04:01.970Z,115.87
2018-11-23T06:06:30.478Z,98.70
2018-11-23T06:08:58.995Z,208.63
2018-11-23T06:11:27.467Z,180.37
2018-11-23T06:13:56.510Z,197.77
2018-11-23T06:16:25.011Z,82.73
2018-11-23T06:18:53.513Z,78.47
2018-11-23T06:21:22.189Z,162.33
2018-11-23T06:23:50.661Z,57.40
2018-11-23T06:26:21.971Z,223.70
2018-11-23T06:28:50.446Z,89.07
2018-11-23T06:39:42.992Z,68.87
2018-11-23T06:42:17.308Z,92.23
2018-11-23T06:44:51.289Z,157.77
2018-11-23T06:53:29.098Z,125.30
2018-11-23T06:56:11.583Z,82.00
2018-11-23T06:58:43.839Z,54.63
2018-11-23T07:01:16.313Z,226.93
2018-11-23T07:03:48.409Z,55.60
2018-11-23T07:06:25.567Z,133.80
2018-11-23T07:08:57.731Z,84.53
2018-11-23T07:12:27.486Z,102.33
2018-11-23T07:19:38.109Z,32.33
2018-11-23T07:22:08.052Z,36.17
2018-11-23T07:24:37.217Z,83.37
2018-11-23T07:27:07.317Z,74.97
2018-11-23T07:29:37.851Z,91.37
2018-11-23T07:32:07.391Z,131.77
2018-11-23T07:34:37.065Z,90.40
2018-11-23T07:43:27.181Z,167.13
2018-11-23T07:45:57.984Z,130.93
2018-11-23T07:48:27.766Z,141.60
2018-11-23T07:50:57.712Z,76.30
2018-11-23T07:53:31.105Z,45.50
2018-11-23T07:56:15.356Z,29.93
2018-11-23T07:58:52.440Z,22.57
2018-11-23T08:01:26.867Z,39.00
2018-11-23T08:04:14.286Z,89.27
2018-11-23T08:07:15.434Z,42.83
2018-11-23T08:09:53.437Z,39.87
2018-11-23T08:15:22.712Z,52.07
2018-11-23T08:44:55.309Z,28.50
2018-11-23T08:47:26.581Z,53.93
2018-11-23T08:50:05.999Z,120.47
2018-11-23T08:54:25.789Z,78.73
2018-11-23T08:57:08.811Z,88.17
2018-11-23T08:59:56.113Z,27.90
2018-11-23T09:08:10.451Z,66.07
2018-11-23T09:10:57.441Z,52.13
2018-11-23T09:13:29.201Z,50.80
2018-11-23T09:16:08.736Z,67.40
2018-11-23T09:18:38.552Z,44.83
2018-11-23T09:21:09.794Z,83.67
2018-11-23T09:23:42.365Z,58.33
2018-11-23T09:26:11.672Z,296.50
2018-11-23T09:28:42.713Z,39.07
2018-11-23T09:31:12.730Z,54.90
2018-11-23T09:33:43.145Z,36.37
2018-11-23T09:36:13.074Z,78.87
2018-11-23T09:38:44.116Z,77.20
2018-11-23T09:41:14.203Z,63.20
2018-11-23T09:43:44.106Z,61.17
2018-11-23T09:46:14.784Z,30.60
2018-11-23T09:48:44.792Z,24.23
2018-11-23T09:51:18.933Z,70.23
2018-11-23T09:53:51.690Z,40.20
2018-11-23T09:56:22.395Z,75.03
2018-11-23T09:58:56.303Z,58.50
2018-11-23T10:01:27.144Z,57.63
2018-11-23T10:03:57.689Z,88.03
2018-11-23T10:06:28.611Z,44.10
2018-11-23T10:08:58.552Z,28.33
2018-11-23T10:11:29.284Z,39.93
2018-11-23T10:13:59.200Z,19.70
2018-11-23T10:16:29.731Z,27.87
2018-11-23T10:18:59.811Z,31.57
2018-11-23T10:21:30.582Z,23.63
2018-11-23T10:24:52.078Z,32.47
2018-11-23T10:27:22.727Z,14.73
2018-11-23T10:29:55.368Z,19.37
2018-11-23T10:32:23.899Z,25.67
2018-11-23T10:34:53.415Z,17.83
2018-11-23T10:37:26.495Z,25.93
2018-11-23T10:39:58.252Z,21.70
2018-11-23T11:04:07.097Z,30.10
2018-11-23T11:51:17.674Z,20.23
2018-11-23T11:59:54.293Z,23.40
2018-11-23T12:02:29.225Z,30.80
2018-11-23T12:05:01.425Z,35.37
2018-11-23T12:29:38.648Z,28.33
2018-11-23T12:35:37.031Z,28.17
2018-11-23T12:55:36.309Z,29.47
2018-11-23T13:01:57.030Z,23.13
2018-11-23T13:04:28.607Z,25.03
2018-11-23T13:07:07.006Z,25.85
2018-11-23T13:10:09.785Z,46.67
2018-11-23T13:12:39.199Z,36.20
2018-11-23T13:15:10.937Z,31.02
2018-11-23T13:18:08.908Z,24.83
2018-11-23T13:44:28.796Z,26.30
2018-11-23T14:22:48.884Z,34.43
2018-11-23T14:28:22.017Z,34.63
2018-11-23T14:36:27.922Z,32.37
2018-11-23T14:44:21.215Z,24.07
2018-11-23T14:46:50.727Z,22.00
2018-11-23T14:49:20.643Z,22.33
2018-11-23T15:11:14.542Z,22.87
2018-11-23T15:46:47.959Z,29.43
2018-11-23T15:49:29.062Z,33.70
2018-11-23T15:51:57.905Z,34.67
2018-11-23T15:54:27.034Z,32.57
2018-11-23T15:56:56.017Z,29.97
2018-11-23T15:59:25.148Z,26.87
2018-11-23T16:01:58.870Z,104.97
2018-11-23T16:04:39.423Z,212.53
2018-11-23T16:07:09.513Z,27.37
2018-11-23T16:09:45.466Z,25.23
2018-11-23T16:12:16.060Z,25.53
2018-11-23T16:14:44.582Z,30.80
2018-11-23T16:17:13.359Z,26.43
2018-11-23T16:19:42.172Z,25.40
2018-11-23T16:22:12.654Z,28.93
2018-11-23T16:24:47.323Z,28.23
2018-11-23T16:33:28.644Z,28.63
2018-11-23T16:36:01.195Z,27.80
2018-11-23T16:38:30.412Z,25.87
2018-11-23T16:41:00.118Z,25.53
2018-11-23T16:46:26.046Z,25.40
2018-11-23T16:48:55.296Z,27.73
2018-11-23T16:51:51.604Z,26.87
2018-11-23T16:58:08.149Z,26.23
2018-11-23T17:00:38.428Z,27.87
2018-11-23T17:03:15.850Z,26.47
2018-11-23T17:05:47.610Z,26.23
2018-11-23T17:08:23.781Z,30.03
2018-11-23T17:10:52.581Z,29.43
2018-11-23T17:13:24.227Z,29.37
2018-11-23T17:15:55.059Z,27.03
2018-11-23T17:18:36.018Z,26.03
2018-11-23T17:21:04.889Z,30.67
2018-11-23T17:23:35.503Z,25.20
2018-11-23T17:26:04.247Z,119.17
2018-11-23T17:28:33.099Z,61.47
2018-11-23T17:31:02.187Z,25.57
2018-11-23T17:33:31.550Z,30.63
2018-11-23T17:36:00.212Z,28.63
2018-11-23T17:38:28.966Z,23.90
2018-11-23T17:40:58.797Z,23.20
2018-11-23T17:43:27.590Z,24.07
2018-11-23T17:46:02.803Z,25.23
2018-11-23T17:48:31.372Z,22.00
2018-11-23T17:51:00.153Z,26.83
2018-11-23T17:53:29.124Z,23.90
2018-11-23T17:58:41.456Z,24.37
2018-11-23T18:01:10.580Z,21.20
2018-11-23T18:03:47.588Z,21.40
2018-11-23T18:06:27.955Z,19.73
2018-11-23T18:08:56.708Z,25.53
2018-11-23T18:11:25.214Z,22.17
2018-11-23T18:13:56.416Z,25.70
2018-11-23T18:16:26.084Z,23.20
2018-11-23T18:19:10.659Z,21.40
2018-11-23T18:21:54.225Z,22.30
2018-11-23T18:24:24.156Z,22.20
2018-11-23T18:26:52.938Z,21.13
2018-11-23T18:29:33.821Z,19.30
2018-11-23T18:32:02.419Z,22.70
2018-11-23T18:34:34.871Z,21.77
2018-11-23T18:37:03.751Z,31.23
2018-11-23T18:39:32.275Z,44.63
2018-11-23T18:42:02.308Z,36.23
2018-11-23T18:44:31.135Z,42.27
2018-11-23T18:46:59.999Z,37.87
2018-11-23T18:49:34.366Z,65.03
2018-11-23T18:52:14.718Z,40.13
2018-11-23T18:54:43.862Z,33.33
2018-11-23T18:57:16.598Z,24.70
2018-11-23T18:59:57.033Z,28.33
2018-11-23T19:02:42.133Z,30.53
2018-11-23T19:05:21.469Z,26.93
2018-11-23T19:07:51.731Z,26.50
2018-11-23T19:10:35.092Z,23.83
2018-11-23T19:15:47.483Z,29.37
2018-11-23T19:18:23.800Z,30.77
2018-11-23T19:20:52.765Z,35.13
2018-11-23T19:23:21.539Z,39.60
2018-11-23T19:25:50.508Z,51.43
2018-11-23T19:28:19.083Z,95.17
2018-11-23T19:30:48.985Z,75.23
2018-11-23T19:33:17.505Z,50.10
2018-11-23T19:35:46.118Z,71.67
2018-11-23T19:38:14.713Z,123.23
2018-11-23T19:40:49.265Z,258.80
2018-11-23T19:43:18.075Z,330.70
2018-11-23T19:45:46.930Z,507.63
2018-11-23T19:48:15.634Z,124.53
2018-11-23T19:50:44.168Z,307.37
2018-11-23T19:53:12.803Z,240.50
2018-11-23T19:55:41.437Z,214.17
2018-11-23T19:58:11.335Z,278.93
2018-11-23T20:00:40.174Z,227.10
2018-11-23T20:03:09.484Z,295.90
2018-11-23T20:05:38.143Z,177.27
2018-11-23T20:08:06.756Z,235.43
2018-11-23T20:10:41.835Z,185.27
2018-11-23T20:13:26.295Z,424.77
2018-11-23T20:15:58.051Z,495.37
2018-11-23T20:18:36.295Z,301.67
2018-11-23T20:21:04.900Z,201.43
2018-11-23T20:23:33.728Z,291.77
2018-11-23T20:26:02.279Z,235.53
2018-11-23T20:31:06.600Z,258.87
2018-11-23T20:33:35.184Z,340.67
2018-11-23T20:36:03.757Z,236.93
2018-11-23T20:38:32.280Z,99.10
2018-11-23T20:41:00.832Z,96.53
2018-11-23T20:43:29.822Z,254.50
2018-11-23T20:46:01.634Z,126.50
2018-11-23T20:48:30.157Z,71.73
2018-11-23T20:51:01.381Z,74.93
2018-11-23T20:53:29.952Z,64.30
2018-11-23T20:55:59.494Z,55.03
2018-11-23T20:58:28.072Z,47.73
2018-11-23T21:00:56.659Z,46.33
2018-11-23T21:03:25.293Z,38.97
2018-11-23T21:05:54.973Z,39.37
2018-11-23T21:08:24.199Z,33.83
2018-11-23T21:10:52.776Z,30.10
2018-11-23T21:13:21.563Z,36.73
2018-11-23T21:15:50.721Z,25.00
2018-11-23T21:18:22.562Z,26.17
2018-11-23T21:20:51.951Z,33.40
2018-11-23T21:23:20.598Z,27.43
2018-11-23T21:25:49.117Z,26.20
2018-11-23T21:28:17.772Z,34.50
2018-11-23T21:30:46.851Z,30.87
2018-11-23T21:33:15.408Z,29.40
2018-11-23T21:35:43.879Z,32.03
2018-11-23T21:38:13.552Z,28.13
2018-11-23T21:40:44.409Z,37.40
2018-11-23T21:43:10.594Z,32.70
2018-11-23T21:45:39.360Z,31.70
2018-11-23T21:48:07.862Z,38.10
2018-11-23T21:50:36.294Z,31.90
2018-11-23T21:53:05.038Z,27.27
2018-11-23T21:55:33.701Z,24.43
2018-11-23T21:58:02.282Z,31.77
2018-11-23T22:03:18.673Z,26.33
2018-11-23T22:05:48.871Z,30.27
2018-11-23T22:08:17.792Z,28.13
2018-11-23T22:10:46.310Z,25.27
2018-11-23T22:13:15.623Z,25.43
2018-11-23T22:15:44.193Z,31.30
2018-11-23T22:18:12.751Z,25.83
2018-11-23T22:20:42.317Z,23.57
2018-11-23T22:23:11.177Z,27.90
2018-11-23T22:25:41.428Z,27.37
2018-11-23T22:28:09.990Z,26.80
2018-11-23T22:30:40.331Z,28.00
2018-11-23T22:33:09.163Z,21.83
2018-11-23T22:35:37.844Z,25.03
2018-11-23T22:38:07.166Z,21.97
2018-11-23T22:40:38.841Z,23.73
2018-11-23T22:43:08.145Z,23.33
2018-11-23T22:45:36.766Z,32.40
2018-11-23T22:48:05.538Z,22.77
2018-11-23T22:50:34.268Z,24.20
2018-11-23T22:53:02.990Z,24.63
2018-11-23T22:55:31.966Z,29.57
2018-11-23T22:58:00.443Z,22.57
2018-11-23T23:00:34.437Z,25.30
2018-11-23T23:03:04.001Z,27.40
2018-11-23T23:05:32.826Z,24.40
2018-11-23T23:08:01.560Z,21.67
2018-11-23T23:10:30.142Z,20.33
2018-11-23T23:12:58.788Z,24.50
2018-11-23T23:15:27.263Z,24.67
2018-11-23T23:17:55.924Z,24.33
2018-11-23T23:20:24.781Z,23.20
2018-11-23T23:22:53.412Z,21.53
2018-11-23T23:25:22.056Z,24.17
2018-11-23T23:27:50.636Z,26.37
2018-11-23T23:30:19.619Z,25.07
2018-11-23T23:32:49.130Z,22.93
2018-11-23T23:35:18.427Z,22.40
2018-11-23T23:37:47.049Z,24.47
2018-11-23T23:40:17.417Z,31.53
2018-11-23T23:42:47.288Z,33.73
2018-11-23T23:45:17.016Z,34.20
2018-11-23T23:47:45.770Z,41.13
2018-11-23T23:50:19.273Z,27.13
2018-11-23T23:52:48.132Z,25.77
2018-11-23T23:55:16.621Z,23.60
2018-11-23T23:57:45.964Z,33.50
